Time;durP1;ratioP1;P1;durP2;ratioP2;P2;SDS_P1;SDS_P2;PMS_P1;PMS_P2;Temp;Humidity;BMP_temperature;BMP_pressure;BME280_temperature;BME280_humidity;BME280_pressure;Samples;Min_cycle;Max_cycle;Signal;HPM_P1;HPM_P2
2020/12/15 00:00:05;;;;;;;46.50;13.10;;;2.80;97.70;;;;;;5009856;28;20214;-88
2020/12/15 00:02:32;;;;;;;56.67;14.83;;;2.80;98.00;;;;;;5011958;28;20268;-88
2020/12/15 00:04:59;;;;;;;32.90;13.60;;;2.90;98.00;;;;;;5009048;28;20293;-88
2020/12/15 00:07:26;;;;;;;70.13;14.93;;;2.90;98.10;;;;;;5011662;28;20233;-89
2020/12/15 00:09:53;;;;;;;98.20;15.13;;;2.90;97.90;;;;;;5013176;28;20207;-88
2020/12/15 00:12:19;;;;;;;98.93;15.93;;;2.90;98.00;;;;;;5012526;28;20228;-91
2020/12/15 00:14:45;;;;;;;24.27;13.37;;;2.80;98.10;;;;;;5025778;28;20190;-89
2020/12/15 00:17:12;;;;;;;108.80;16.90;;;2.80;98.20;;;;;;5011406;28;20452;-88
2020/12/15 00:19:38;;;;;;;117.50;16.03;;;2.90;98.40;;;;;;5011373;28;20229;-90
2020/12/15 00:22:06;;;;;;;68.53;14.83;;;2.90;98.40;;;;;;5018869;28;20313;-89
2020/12/15 00:24:34;;;;;;;52.40;14.37;;;2.90;98.20;;;;;;5019349;28;20195;-87
2020/12/15 00:27:00;;;;;;;54.37;14.27;;;2.90;98.20;;;;;;5020163;28;20618;-89
2020/12/15 00:29:27;;;;;;;85.83;15.93;;;2.90;98.40;;;;;;5030319;28;20211;-89
2020/12/15 00:31:53;;;;;;;74.63;15.77;;;2.90;98.30;;;;;;5027880;28;20254;-88
2020/12/15 00:34:19;;;;;;;89.00;16.33;;;2.90;98.40;;;;;;5025963;28;20444;-89
2020/12/15 00:36:46;;;;;;;39.70;14.90;;;2.80;98.70;;;;;;5017439;28;20234;-89
2020/12/15 00:39:12;;;;;;;44.70;14.47;;;3.00;98.90;;;;;;5023107;28;20194;-89
2020/12/15 00:41:39;;;;;;;61.80;14.90;;;3.00;98.80;;;;;;5026813;28;20206;-88
2020/12/15 00:44:06;;;;;;;34.23;13.83;;;3.00;98.60;;;;;;5031468;28;20245;-88
2020/12/15 00:46:32;;;;;;;75.03;16.50;;;3.00;98.50;;;;;;5021877;28;20672;-88
2020/12/15 00:48:58;;;;;;;51.70;14.77;;;3.00;98.30;;;;;;5025800;28;20207;-89
2020/12/15 00:51:25;;;;;;;50.60;15.00;;;3.00;98.30;;;;;;5027764;28;20206;-87
2020/12/15 00:53:51;;;;;;;29.83;14.53;;;3.00;98.50;;;;;;5026383;28;20217;-89
2020/12/15 00:56:18;;;;;;;94.23;16.43;;;3.00;98.60;;;;;;5028875;28;20750;-88
2020/12/15 00:58:45;;;;;;;30.13;14.23;;;2.90;98.60;;;;;;5025211;28;20232;-89
2020/12/15 01:01:20;;;;;;;132.70;16.20;;;2.90;98.60;;;;;;5027601;28;20245;-89
2020/12/15 01:03:46;;;;;;;82.10;14.27;;;2.90;98.40;;;;;;5014153;28;20221;-90
2020/12/15 01:06:12;;;;;;;38.00;12.37;;;3.00;98.10;;;;;;5028669;28;20213;-88
2020/12/15 01:08:39;;;;;;;39.67;12.43;;;3.00;98.00;;;;;;5028373;28;20557;-89
2020/12/15 01:11:05;;;;;;;60.07;13.80;;;3.00;97.60;;;;;;5027768;28;20221;-89
2020/12/15 01:13:32;;;;;;;68.53;15.37;;;2.90;97.70;;;;;;5028625;28;20222;-88
2020/12/15 01:16:04;;;;;;;53.30;15.33;;;2.90;98.00;;;;;;5026069;28;20966;-88
2020/12/15 01:18:31;;;;;;;35.37;13.87;;;2.80;98.00;;;;;;5018642;28;20245;-89
2020/12/15 01:20:57;;;;;;;21.87;12.97;;;2.80;98.30;;;;;;5028152;28;20199;-87
2020/12/15 01:23:24;;;;;;;59.10;14.50;;;2.90;98.60;;;;;;5038585;28;20218;-90
2020/12/15 01:25:50;;;;;;;16.27;12.53;;;3.00;98.30;;;;;;5034027;28;20298;-91
2020/12/15 01:28:17;;;;;;;27.07;12.60;;;3.10;98.50;;;;;;5029391;28;20227;-88
2020/12/15 01:30:43;;;;;;;22.90;12.60;;;3.10;98.30;;;;;;5029128;28;20568;-87
2020/12/15 01:33:10;;;;;;;24.00;12.00;;;3.20;97.90;;;;;;5029993;28;20700;-87
2020/12/15 01:35:36;;;;;;;16.87;12.27;;;3.20;97.60;;;;;;5023114;28;20195;-88
2020/12/15 01:38:03;;;;;;;16.37;12.13;;;3.30;97.30;;;;;;5034064;28;20238;-87
2020/12/15 01:40:29;;;;;;;20.23;11.73;;;3.30;97.00;;;;;;5026078;28;20638;-90
2020/12/15 01:43:12;;;;;;;17.70;12.47;;;3.40;97.00;;;;;;5029863;28;20218;-89
2020/12/15 01:45:38;;;;;;;16.10;11.47;;;3.40;96.80;;;;;;5026809;28;20644;-88
2020/12/15 01:48:05;;;;;;;16.50;11.70;;;3.40;96.90;;;;;;5030220;28;20557;-87
2020/12/15 01:50:32;;;;;;;16.33;12.13;;;3.40;96.70;;;;;;5033138;28;20209;-87
2020/12/15 01:52:59;;;;;;;28.37;11.37;;;3.50;96.50;;;;;;5033425;28;20245;-88
2020/12/15 01:55:26;;;;;;;16.73;11.80;;;3.50;96.50;;;;;;5035618;28;20217;-88
2020/12/15 01:57:52;;;;;;;20.63;11.47;;;3.40;96.60;;;;;;5032736;28;20558;-88
2020/12/15 02:00:18;;;;;;;13.50;11.00;;;3.40;96.50;;;;;;5031501;28;20223;-88
2020/12/15 02:02:45;;;;;;;14.47;11.33;;;3.50;96.10;;;;;;5027798;28;20230;-87
2020/12/15 02:05:11;;;;;;;31.27;11.50;;;3.40;95.90;;;;;;5027563;28;20604;-87
2020/12/15 02:07:38;;;;;;;30.20;12.10;;;3.30;96.00;;;;;;5033258;28;20220;-89
2020/12/15 02:10:05;;;;;;;16.43;12.13;;;3.20;96.40;;;;;;5033145;28;20213;-87
2020/12/15 02:12:31;;;;;;;17.53;11.13;;;3.20;97.10;;;;;;5033260;28;20218;-86
2020/12/15 02:14:58;;;;;;;17.43;11.93;;;3.30;97.10;;;;;;5034909;28;20208;-88
2020/12/15 02:17:24;;;;;;;15.10;11.50;;;3.40;96.80;;;;;;5031105;28;20605;-87
2020/12/15 02:20:00;;;;;;;22.37;11.93;;;3.40;96.60;;;;;;5032709;28;20213;-88
2020/12/15 02:22:28;;;;;;;14.27;11.57;;;3.40;96.70;;;;;;5034081;28;20226;-88
2020/12/15 02:24:54;;;;;;;16.97;12.30;;;3.40;96.60;;;;;;5031317;28;20211;-87
2020/12/15 02:27:21;;;;;;;16.20;11.00;;;3.50;96.60;;;;;;5027527;28;20231;-89
2020/12/15 02:29:47;;;;;;;13.67;10.37;;;3.50;95.90;;;;;;5025877;28;20545;-88
2020/12/15 02:32:14;;;;;;;13.10;10.10;;;3.40;95.80;;;;;;5026735;28;20232;-88
2020/12/15 02:34:40;;;;;;;14.10;10.63;;;3.30;96.20;;;;;;5028268;28;20209;-87
2020/12/15 02:37:07;;;;;;;15.13;11.33;;;3.20;96.40;;;;;;5024170;28;20234;-87
2020/12/15 02:39:35;;;;;;;17.27;11.37;;;3.00;96.80;;;;;;5029320;28;20209;-89
2020/12/15 02:42:01;;;;;;;13.93;10.87;;;3.00;97.30;;;;;;5028245;28;20230;-88
2020/12/15 02:44:27;;;;;;;25.17;11.50;;;3.00;97.60;;;;;;5023404;28;20377;-87
2020/12/15 02:46:54;;;;;;;16.10;11.67;;;3.00;97.00;;;;;;5028159;28;20230;-88
2020/12/15 02:49:21;;;;;;;15.80;11.57;;;3.10;97.40;;;;;;5027325;28;20571;-88
2020/12/15 02:51:49;;;;;;;14.83;11.20;;;3.10;97.90;;;;;;5027570;28;20218;-88
2020/12/15 02:54:15;;;;;;;20.17;12.03;;;3.30;97.30;;;;;;5027332;28;20207;-87
2020/12/15 02:56:42;;;;;;;14.40;11.43;;;3.30;96.90;;;;;;5022669;28;20222;-88
2020/12/15 02:59:09;;;;;;;14.93;11.30;;;3.40;96.80;;;;;;5025950;28;20222;-88
2020/12/15 03:01:39;;;;;;;16.67;10.57;;;3.40;96.50;;;;;;5021228;28;20478;-89
2020/12/15 03:04:06;;;;;;;18.50;10.50;;;3.40;96.30;;;;;;5024610;28;20215;-87
2020/12/15 03:06:32;;;;;;;14.70;10.63;;;3.40;96.30;;;;;;5027838;28;20202;-91
2020/12/15 03:08:59;;;;;;;13.00;9.63;;;3.30;96.50;;;;;;5026405;28;20206;-88
2020/12/15 03:11:26;;;;;;;29.87;10.30;;;3.30;96.40;;;;;;5018213;28;20207;-88
2020/12/15 03:13:54;;;;;;;13.27;9.53;;;3.20;96.30;;;;;;5026025;28;20272;-89
2020/12/15 03:16:20;;;;;;;14.77;9.80;;;3.30;96.30;;;;;;5024394;28;20226;-87
2020/12/15 03:18:47;;;;;;;18.80;10.90;;;3.30;96.30;;;;;;5024622;28;20617;-88
2020/12/15 03:21:15;;;;;;;17.80;10.07;;;3.30;96.10;;;;;;5025345;28;20260;-88
2020/12/15 03:23:42;;;;;;;17.40;9.80;;;3.30;96.10;;;;;;5022526;28;20248;-89
2020/12/15 03:26:10;;;;;;;17.20;9.67;;;3.30;96.10;;;;;;5022599;28;20483;-87
2020/12/15 03:28:36;;;;;;;28.50;11.03;;;3.30;96.20;;;;;;5029529;28;20571;-87
2020/12/15 03:31:03;;;;;;;29.70;10.53;;;3.30;96.10;;;;;;5028275;28;20208;-89
2020/12/15 03:33:29;;;;;;;19.73;10.00;;;3.20;96.50;;;;;;5027358;28;20222;-88
2020/12/15 03:35:56;;;;;;;12.03;8.80;;;3.10;96.40;;;;;;5026610;28;20329;-89
2020/12/15 03:38:22;;;;;;;35.97;9.60;;;3.20;96.40;;;;;;5022090;28;20229;-87
2020/12/15 03:40:49;;;;;;;29.90;9.50;;;3.00;95.80;;;;;;5026384;28;20203;-88
2020/12/15 03:43:15;;;;;;;32.43;9.00;;;2.90;96.20;;;;;;5029851;28;20236;-87
2020/12/15 03:45:42;;;;;;;17.70;8.40;;;2.90;96.40;;;;;;5024347;28;20584;-87
2020/12/15 03:48:10;;;;;;;10.23;7.43;;;2.70;96.60;;;;;;5027129;28;20223;-87
2020/12/15 03:50:36;;;;;;;20.93;8.23;;;2.80;96.20;;;;;;5029901;28;20216;-88
2020/12/15 03:53:03;;;;;;;10.67;7.77;;;2.70;96.00;;;;;;5025325;28;20223;-87
2020/12/15 03:55:29;;;;;;;17.47;7.83;;;2.70;96.30;;;;;;5026518;28;20202;-91
2020/12/15 03:57:56;;;;;;;11.20;7.20;;;2.70;96.20;;;;;;5027076;28;20230;-88
2020/12/15 04:00:22;;;;;;;25.97;8.07;;;2.70;96.20;;;;;;5028386;28;20215;-87
2020/12/15 04:02:49;;;;;;;19.47;6.63;;;2.70;95.90;;;;;;5028518;28;20244;-88
2020/12/15 04:05:16;;;;;;;20.37;6.80;;;2.70;95.70;;;;;;5035079;28;20215;-88
2020/12/15 04:07:43;;;;;;;9.93;6.07;;;2.60;95.70;;;;;;5026698;28;20592;-88
2020/12/15 04:10:11;;;;;;;15.00;6.63;;;2.60;95.70;;;;;;5026023;28;20233;-87
2020/12/15 04:12:37;;;;;;;13.33;6.13;;;2.50;95.30;;;;;;5031681;28;20222;-89
2020/12/15 04:15:04;;;;;;;6.93;6.20;;;2.40;96.00;;;;;;5033763;28;20221;-88
2020/12/15 04:17:30;;;;;;;6.53;5.83;;;2.40;96.20;;;;;;5030740;28;20218;-88
2020/12/15 04:19:57;;;;;;;6.20;5.60;;;2.50;96.00;;;;;;5035236;28;20735;-87
2020/12/15 04:22:24;;;;;;;8.80;5.63;;;2.50;95.60;;;;;;5030141;28;20222;-89
2020/12/15 04:24:50;;;;;;;7.00;5.60;;;2.40;95.20;;;;;;5032704;28;20661;-87
2020/12/15 04:27:17;;;;;;;12.70;5.50;;;2.30;95.20;;;;;;5027901;28;20223;-90
2020/12/15 04:29:43;;;;;;;6.37;5.70;;;2.10;95.90;;;;;;5029181;28;20210;-89
2020/12/15 04:32:10;;;;;;;6.00;5.40;;;2.10;95.90;;;;;;5032388;28;20234;-88
2020/12/15 04:34:36;;;;;;;5.80;5.20;;;2.20;95.50;;;;;;5027445;28;20198;-88
2020/12/15 04:37:03;;;;;;;6.37;5.60;;;2.30;95.40;;;;;;5030035;28;20285;-87
2020/12/15 04:39:30;;;;;;;6.13;5.23;;;2.20;95.20;;;;;;5042911;28;20213;-91
2020/12/15 04:41:57;;;;;;;5.97;5.40;;;2.20;95.70;;;;;;5029733;28;20677;-88
2020/12/15 04:44:25;;;;;;;6.63;5.30;;;2.30;95.80;;;;;;5028479;28;20205;-90
2020/12/15 04:47:02;;;;;;;6.30;5.70;;;2.30;95.60;;;;;;5034204;28;20233;-87
2020/12/15 04:49:31;;;;;;;5.73;5.17;;;2.30;95.50;;;;;;5032995;28;20267;-89
2020/12/15 04:52:01;;;;;;;6.30;5.40;;;2.20;95.90;;;;;;5026887;28;20625;-88
2020/12/15 04:54:31;;;;;;;5.57;5.03;;;2.20;95.60;;;;;;5026595;28;20649;-87
2020/12/15 04:57:00;;;;;;;5.83;5.23;;;2.10;95.80;;;;;;5029759;28;20247;-88
2020/12/15 04:59:30;;;;;;;6.10;5.50;;;2.10;96.50;;;;;;5027697;28;20632;-89
2020/12/15 05:01:57;;;;;;;6.47;5.27;;;2.20;96.60;;;;;;5026486;28;20229;-88
2020/12/15 05:04:25;;;;;;;5.90;5.30;;;2.40;96.50;;;;;;5027484;28;20233;-90
2020/12/15 05:06:55;;;;;;;5.70;5.10;;;2.40;95.90;;;;;;5029527;28;20253;-88
2020/12/15 05:09:29;;;;;;;6.40;5.50;;;2.30;96.10;;;;;;5035158;28;20210;-88
2020/12/15 05:11:57;;;;;;;5.60;5.10;;;2.40;95.70;;;;;;5031509;28;20221;-89
2020/12/15 05:14:25;;;;;;;5.80;5.13;;;2.50;95.20;;;;;;5030303;28;20210;-89
2020/12/15 05:16:51;;;;;;;5.63;5.13;;;2.50;95.40;;;;;;5024249;28;20237;-90
2020/12/15 05:19:18;;;;;;;6.70;5.60;;;2.50;95.40;;;;;;5030988;28;20214;-89
2020/12/15 05:21:55;;;;;;;6.43;5.80;;;2.50;95.60;;;;;;5035401;28;20218;-89
2020/12/15 05:24:23;;;;;;;7.40;5.93;;;2.50;95.30;;;;;;5032276;28;20206;-87
2020/12/15 05:26:49;;;;;;;6.73;6.00;;;2.30;96.10;;;;;;5032668;28;20226;-86
2020/12/15 05:29:20;;;;;;;6.40;5.70;;;2.30;96.40;;;;;;5032218;28;20222;-88
2020/12/15 05:31:46;;;;;;;6.80;5.83;;;2.30;96.30;;;;;;5032643;28;20202;-88
2020/12/15 05:34:22;;;;;;;7.37;5.77;;;2.40;96.30;;;;;;5019786;28;20203;-87
2020/12/15 05:36:56;;;;;;;6.53;5.83;;;2.50;96.20;;;;;;5031690;28;20677;-89
2020/12/15 05:39:23;;;;;;;6.10;5.50;;;2.50;96.30;;;;;;5029372;28;20207;-89
2020/12/15 05:42:01;;;;;;;6.77;5.93;;;2.40;96.40;;;;;;5025808;28;20242;-87
2020/12/15 05:44:28;;;;;;;6.33;5.73;;;2.50;97.00;;;;;;5033959;28;20201;-87
2020/12/15 05:47:00;;;;;;;8.37;6.47;;;2.50;96.80;;;;;;5021167;28;20720;-88
2020/12/15 05:49:28;;;;;;;6.17;5.50;;;2.60;96.80;;;;;;5031247;28;20211;-87
2020/12/15 05:51:56;;;;;;;8.27;5.57;;;2.60;96.20;;;;;;5026710;28;20767;-90
2020/12/15 05:54:22;;;;;;;6.30;5.70;;;2.60;96.30;;;;;;5030466;28;20209;-90
2020/12/15 05:57:00;;;;;;;6.63;5.63;;;2.60;96.50;;;;;;5029263;28;20237;-90
2020/12/15 05:59:29;;;;;;;6.37;5.23;;;2.60;96.50;;;;;;5020919;28;20226;-92
2020/12/15 06:02:04;;;;;;;7.47;5.80;;;2.60;96.50;;;;;;5025498;28;20649;-90
2020/12/15 06:04:31;;;;;;;5.97;5.27;;;2.70;96.70;;;;;;5031600;28;20200;-87
2020/12/15 06:07:00;;;;;;;7.27;5.70;;;2.80;96.60;;;;;;5032032;28;20232;-91
2020/12/15 06:09:28;;;;;;;5.80;5.20;;;2.80;96.20;;;;;;5033911;28;20206;-87
2020/12/15 06:11:55;;;;;;;6.30;5.50;;;2.90;96.30;;;;;;5030359;28;20248;-86
2020/12/15 06:14:24;;;;;;;7.60;5.53;;;2.80;96.00;;;;;;5026756;28;20199;-87
2020/12/15 06:16:52;;;;;;;7.93;5.90;;;2.90;96.20;;;;;;5025342;28;20234;-92
2020/12/15 06:19:19;;;;;;;7.10;5.17;;;2.80;96.30;;;;;;5020031;28;20206;-89
2020/12/15 06:21:48;;;;;;;8.07;6.07;;;2.90;96.30;;;;;;5025950;28;20565;-90
2020/12/15 06:24:24;;;;;;;7.83;5.57;;;2.90;96.00;;;;;;5016373;28;20218;-90
2020/12/15 06:26:59;;;;;;;6.50;5.80;;;2.80;96.40;;;;;;5023250;28;20217;-91
2020/12/15 06:29:38;;;;;;;7.03;5.50;;;3.00;96.50;;;;;;5040548;28;20201;-90
2020/12/15 06:32:16;;;;;;;6.37;5.73;;;2.90;96.10;;;;;;5033491;28;20452;-87
2020/12/15 06:34:45;;;;;;;7.23;5.53;;;2.80;96.30;;;;;;5028694;28;20190;-90
2020/12/15 06:37:14;;;;;;;7.10;5.97;;;2.80;96.70;;;;;;5029605;28;20236;-90
2020/12/15 06:39:53;;;;;;;6.83;5.73;;;2.80;96.70;;;;;;5029801;28;20198;-90
2020/12/15 06:42:19;;;;;;;7.40;5.73;;;2.90;96.80;;;;;;5031248;28;20218;-92
2020/12/15 06:44:46;;;;;;;8.30;6.27;;;3.00;96.80;;;;;;5030698;28;20190;-89
2020/12/15 06:47:13;;;;;;;7.13;6.30;;;2.90;96.50;;;;;;5029647;28;20260;-88
2020/12/15 06:49:39;;;;;;;8.17;5.63;;;3.00;96.70;;;;;;5033768;28;20618;-88
2020/12/15 06:52:10;;;;;;;6.83;5.80;;;3.00;96.70;;;;;;5027839;28;20223;-90
2020/12/15 06:54:37;;;;;;;9.70;6.33;;;3.20;96.60;;;;;;5028949;28;20677;-90
2020/12/15 06:57:05;;;;;;;8.10;5.73;;;3.20;96.30;;;;;;5025545;28;20235;-89
2020/12/15 06:59:36;;;;;;;8.83;5.43;;;3.20;96.00;;;;;;5028093;28;20558;-90
2020/12/15 07:02:10;;;;;;;9.63;5.70;;;3.20;95.90;;;;;;5021560;28;20226;-87
2020/12/15 07:04:42;;;;;;;9.47;6.67;;;3.20;96.10;;;;;;5031590;28;20195;-87
2020/12/15 07:07:09;;;;;;;8.53;5.67;;;3.20;96.20;;;;;;5030430;28;20890;-87
2020/12/15 07:09:36;;;;;;;6.77;5.80;;;3.20;96.10;;;;;;5032908;28;20202;-89
2020/12/15 07:12:04;;;;;;;8.47;5.90;;;3.30;96.10;;;;;;5024913;28;20238;-89
2020/12/15 07:14:30;;;;;;;8.40;6.23;;;3.30;95.80;;;;;;5023366;28;20598;-88
2020/12/15 07:16:58;;;;;;;7.53;5.90;;;3.30;96.10;;;;;;5023062;28;20601;-88
2020/12/15 07:19:24;;;;;;;6.80;5.50;;;3.30;96.00;;;;;;5032985;28;20655;-87
2020/12/15 07:21:54;;;;;;;7.70;6.70;;;3.20;95.70;;;;;;5026651;28;20226;-90
2020/12/15 07:24:20;;;;;;;7.47;6.00;;;3.30;96.10;;;;;;5030598;28;20263;-89
2020/12/15 07:26:48;;;;;;;8.77;7.13;;;3.30;96.20;;;;;;5029388;28;20209;-88
2020/12/15 07:29:18;;;;;;;8.87;7.13;;;3.20;96.50;;;;;;5025389;28;20195;-86
2020/12/15 07:31:44;;;;;;;10.37;6.97;;;3.20;96.60;;;;;;5027905;28;20206;-89
2020/12/15 07:34:12;;;;;;;14.33;7.40;;;3.20;96.50;;;;;;5031806;28;20213;-89
2020/12/15 07:36:42;;;;;;;10.30;7.17;;;3.20;96.40;;;;;;5022023;28;20226;-88
2020/12/15 07:39:10;;;;;;;9.47;7.13;;;3.20;96.50;;;;;;5029014;28;20214;-88
2020/12/15 07:41:37;;;;;;;8.60;6.53;;;3.20;96.60;;;;;;5026359;28;20252;-88
2020/12/15 07:44:07;;;;;;;14.10;6.70;;;3.40;96.50;;;;;;5031187;28;20213;-88
2020/12/15 07:46:33;;;;;;;9.03;6.50;;;3.40;96.20;;;;;;5032334;28;20211;-88
2020/12/15 07:49:04;;;;;;;12.20;7.77;;;3.50;96.10;;;;;;5026553;28;20203;-89
2020/12/15 07:51:31;;;;;;;10.47;7.10;;;3.50;96.00;;;;;;5034289;28;20195;-89
2020/12/15 07:53:59;;;;;;;12.47;7.17;;;3.50;96.00;;;;;;5034944;28;20649;-87
2020/12/15 07:56:26;;;;;;;8.10;6.53;;;3.50;95.60;;;;;;5035688;28;20194;-87
2020/12/15 07:58:54;;;;;;;12.20;6.77;;;3.60;95.60;;;;;;5031301;28;20292;-88
2020/12/15 08:01:24;;;;;;;8.83;7.00;;;3.80;95.10;;;;;;5030523;28;20215;-90
2020/12/15 08:04:02;;;;;;;9.40;7.00;;;3.70;94.80;;;;;;5035886;28;20241;-86
2020/12/15 08:06:30;;;;;;;9.90;7.43;;;3.70;94.80;;;;;;5028734;28;20252;-90
2020/12/15 08:08:58;;;;;;;10.83;7.23;;;3.70;94.80;;;;;;5035943;28;20211;-88
2020/12/15 08:11:25;;;;;;;8.87;6.87;;;3.70;94.80;;;;;;5036883;28;20583;-88
2020/12/15 08:13:52;;;;;;;16.73;7.40;;;3.80;94.80;;;;;;5036679;28;20233;-89
2020/12/15 08:16:18;;;;;;;11.30;7.07;;;3.90;94.70;;;;;;5027325;28;20682;-88
2020/12/15 08:18:46;;;;;;;11.30;7.40;;;4.00;94.20;;;;;;5037118;28;20237;-88
2020/12/15 08:21:16;;;;;;;12.23;7.37;;;4.10;93.90;;;;;;5037472;28;20222;-87
2020/12/15 08:23:49;;;;;;;8.47;6.70;;;4.30;93.60;;;;;;5035559;28;20229;-89
2020/12/15 08:26:17;;;;;;;9.27;7.00;;;4.40;93.10;;;;;;5036905;28;20720;-85
2020/12/15 08:28:45;;;;;;;10.63;7.43;;;4.30;92.80;;;;;;5035344;28;20223;-89
2020/12/15 08:31:12;;;;;;;11.47;6.77;;;4.20;93.40;;;;;;5041507;28;20642;-89
2020/12/15 08:33:56;;;;;;;14.07;7.90;;;4.20;93.60;;;;;;5045504;28;20230;-86
2020/12/15 08:36:23;;;;;;;10.93;6.80;;;4.20;93.40;;;;;;5037904;28;20203;-87
2020/12/15 08:38:51;;;;;;;9.73;6.70;;;4.30;93.10;;;;;;5032534;28;20234;-93
2020/12/15 08:41:18;;;;;;;9.43;6.87;;;4.30;92.80;;;;;;5038733;28;20268;-88
2020/12/15 08:43:49;;;;;;;9.97;6.97;;;4.30;92.70;;;;;;5036625;28;20599;-87
2020/12/15 08:46:18;;;;;;;9.93;6.57;;;4.30;92.70;;;;;;5039487;28;20207;-89
2020/12/15 08:48:45;;;;;;;8.50;6.50;;;4.30;92.80;;;;;;5035583;28;20604;-90
2020/12/15 08:51:13;;;;;;;7.70;6.43;;;4.40;92.70;;;;;;5036627;28;20211;-83
2020/12/15 08:53:40;;;;;;;7.33;6.20;;;4.60;92.10;;;;;;5031204;28;20692;-89
2020/12/15 08:56:13;;;;;;;7.67;6.70;;;4.60;92.10;;;;;;5033675;28;20609;-87
2020/12/15 08:58:41;;;;;;;8.70;7.30;;;4.60;91.90;;;;;;5020104;28;20234;-89
2020/12/15 09:01:08;;;;;;;10.23;6.20;;;4.50;91.70;;;;;;5038358;28;20226;-87
2020/12/15 09:03:44;;;;;;;7.57;6.70;;;4.50;92.00;;;;;;5038411;28;20232;-89
2020/12/15 09:06:10;;;;;;;8.23;6.10;;;4.30;92.40;;;;;;5040866;28;20255;-89
2020/12/15 09:08:47;;;;;;;7.13;6.40;;;4.50;91.90;;;;;;5031552;28;20264;-87
2020/12/15 09:11:14;;;;;;;6.97;6.27;;;4.40;91.80;;;;;;5038657;28;20199;-85
2020/12/15 09:13:59;;;;;;;7.93;6.57;;;4.40;91.80;;;;;;5043076;28;20631;-86
2020/12/15 09:16:29;;;;;;;10.93;6.80;;;4.50;91.80;;;;;;5033951;28;20241;-93
2020/12/15 09:19:11;;;;;;;8.17;6.57;;;4.50;91.90;;;;;;5036397;28;20226;-89
2020/12/15 09:21:37;;;;;;;7.97;6.30;;;4.40;92.20;;;;;;5036066;28;20206;-88
2020/12/15 09:24:54;;;;;;;6.77;6.07;;;4.70;91.90;;;;;;5037126;28;20205;-91
2020/12/15 09:27:22;;;;;;;7.87;6.67;;;4.80;91.90;;;;;;5043340;28;20229;-90
2020/12/15 09:29:49;;;;;;;7.93;6.63;;;5.10;91.60;;;;;;5036307;28;20187;-90
2020/12/15 09:39:43;;;;;;;8.40;6.83;;;5.80;89.60;;;;;;5036097;28;20553;-90
2020/12/15 09:42:10;;;;;;;9.13;6.60;;;6.00;89.50;;;;;;5028574;28;20280;-88
2020/12/15 09:44:36;;;;;;;8.57;6.97;;;6.20;89.70;;;;;;5034314;28;20685;-87
2020/12/15 09:47:22;;;;;;;8.40;7.00;;;6.10;88.50;;;;;;5045265;28;20694;-89
2020/12/15 09:49:48;;;;;;;7.60;6.80;;;6.10;88.70;;;;;;5032733;28;20199;-89
2020/12/15 09:52:15;;;;;;;9.73;6.57;;;6.10;89.40;;;;;;5048317;28;20205;-87
2020/12/15 09:55:13;;;;;;;10.17;6.77;;;6.10;87.90;;;;;;5033491;28;20236;-88
2020/12/15 09:57:39;;;;;;;9.23;6.70;;;6.20;88.90;;;;;;5037769;28;20304;-90
2020/12/15 10:00:42;;;;;;;8.47;7.13;;;6.20;89.70;;;;;;5039343;28;20340;-90
2020/12/15 10:03:08;;;;;;;7.57;6.73;;;6.30;88.20;;;;;;5042973;28;20599;-91
2020/12/15 10:05:34;;;;;;;9.20;6.90;;;6.40;87.40;;;;;;5041093;28;20179;-90
2020/12/15 10:14:54;;;;;;;9.93;7.30;;;6.70;86.40;;;;;;5037298;28;20307;-91
2020/12/15 10:17:21;;;;;;;12.20;6.87;;;6.80;84.90;;;;;;5038065;28;20664;-89
2020/12/15 10:20:12;;;;;;;13.10;7.30;;;6.80;85.10;;;;;;5039826;28;20203;-89
2020/12/15 10:22:40;;;;;;;10.80;7.20;;;6.70;85.00;;;;;;5020334;28;20241;-89
2020/12/15 10:25:06;;;;;;;11.37;7.87;;;6.40;86.40;;;;;;5037828;28;20202;-90
2020/12/15 10:30:56;;;;;;;7.53;6.57;;;6.50;87.30;;;;;;5036844;28;20304;-91
2020/12/15 10:33:22;;;;;;;9.40;7.57;;;6.60;87.20;;;;;;5038470;28;20199;-92
2020/12/15 10:35:48;;;;;;;9.65;7.60;;;6.80;86.00;;;;;;5038046;28;20192;-92
2020/12/15 10:38:15;;;;;;;9.43;7.47;;;6.70;84.80;;;;;;5041630;28;20291;-93
2020/12/15 10:40:42;;;;;;;12.67;7.57;;;6.70;84.70;;;;;;5039101;28;20197;-92
2020/12/15 10:50:49;;;;;;;11.90;7.88;;;7.00;85.30;;;;;;5040719;28;20178;-93
2020/12/15 10:56:39;;;;;;;8.80;7.57;;;7.10;84.10;;;;;;5041276;28;20232;-90
2020/12/15 11:01:41;;;;;;;10.23;8.02;;;6.90;84.80;;;;;;5491785;22;20234;-89
2020/12/15 11:04:08;;;;;;;10.45;7.43;;;6.80;85.60;;;;;;5025687;28;20203;-91
2020/12/15 11:06:41;;;;;;;8.90;7.60;;;6.80;85.80;;;;;;5024202;28;20729;-87
2020/12/15 11:09:10;;;;;;;10.15;7.55;;;6.80;85.70;;;;;;5025568;28;20258;-90
2020/12/15 11:15:26;;;;;;;11.35;7.53;;;6.60;86.00;;;;;;5018510;28;20189;-91
2020/12/15 11:18:18;;;;;;;11.45;7.53;;;6.40;86.40;;;;;;5023990;28;20211;-91
2020/12/15 11:20:45;;;;;;;10.40;8.10;;;6.50;87.10;;;;;;5019374;28;20199;-87
2020/12/15 11:23:11;;;;;;;13.83;8.90;;;6.50;87.50;;;;;;5017692;28;20230;-90
2020/12/15 11:25:38;;;;;;;15.47;8.10;;;6.70;86.50;;;;;;5016089;28;20258;-89
2020/12/15 11:28:04;;;;;;;10.67;8.30;;;6.60;86.80;;;;;;5017182;28;20627;-91
2020/12/15 11:30:32;;;;;;;13.73;8.80;;;6.70;86.80;;;;;;5016576;28;20656;-91
2020/12/15 11:32:58;;;;;;;8.77;7.87;;;6.60;87.20;;;;;;5016266;28;20765;-91
2020/12/15 11:35:25;;;;;;;11.13;8.20;;;6.50;87.80;;;;;;5018769;28;20266;-91
2020/12/15 11:37:51;;;;;;;10.83;8.30;;;6.70;87.80;;;;;;5013189;28;20675;-90
2020/12/15 11:40:17;;;;;;;13.23;8.10;;;6.60;87.50;;;;;;5013256;28;20697;-90
2020/12/15 11:42:44;;;;;;;15.17;8.40;;;6.60;87.40;;;;;;5018106;28;20269;-90
2020/12/15 11:45:14;;;;;;;10.10;8.87;;;6.70;87.20;;;;;;5028440;28;20190;-87
2020/12/15 11:47:41;;;;;;;12.43;8.93;;;6.70;87.30;;;;;;5010809;28;20255;-88
2020/12/15 11:50:08;;;;;;;16.73;9.60;;;6.80;86.60;;;;;;5015721;28;20195;-91
2020/12/15 11:52:35;;;;;;;11.73;8.83;;;6.70;86.50;;;;;;5019146;28;20264;-88
2020/12/15 11:58:24;;;;;;;10.03;7.93;;;7.00;86.70;;;;;;5036210;28;20233;-88
2020/12/15 12:00:55;;;;;;;9.47;7.97;;;7.30;86.10;;;;;;5019853;28;20238;-88
2020/12/15 12:06:46;;;;;;;9.13;7.13;;;7.30;84.70;;;;;;5021243;28;20521;-88
2020/12/15 12:09:27;;;;;;;11.93;7.85;;;7.30;84.00;;;;;;5023283;28;20254;-87
2020/12/15 12:11:55;;;;;;;10.80;8.43;;;7.40;84.70;;;;;;5018121;28;20230;-87
2020/12/15 12:14:23;;;;;;;11.13;8.53;;;7.20;85.30;;;;;;5015669;28;20282;-87
2020/12/15 12:16:50;;;;;;;12.63;9.00;;;6.90;85.50;;;;;;5014691;28;20361;-86
2020/12/15 12:19:16;;;;;;;10.13;8.10;;;6.70;87.10;;;;;;5012856;28;20253;-89
2020/12/15 12:21:44;;;;;;;11.17;8.50;;;6.60;88.20;;;;;;5015279;28;20195;-91
2020/12/15 12:24:12;;;;;;;8.40;7.47;;;6.80;87.80;;;;;;5019623;28;20211;-87
2020/12/15 12:26:38;;;;;;;11.10;8.47;;;7.00;87.30;;;;;;5016888;28;20206;-88
2020/12/15 12:29:05;;;;;;;10.43;8.13;;;7.00;87.00;;;;;;5012808;28;20209;-88
2020/12/15 12:31:32;;;;;;;9.53;8.17;;;7.20;87.00;;;;;;5012872;28;20206;-86
2020/12/15 12:33:58;;;;;;;10.17;8.00;;;7.20;86.30;;;;;;5025450;28;20696;-87
2020/12/15 12:36:30;;;;;;;10.00;7.77;;;7.20;85.70;;;;;;5025347;28;20585;-88
2020/12/15 12:38:57;;;;;;;8.90;8.00;;;7.30;86.20;;;;;;5027389;28;20298;-88
2020/12/15 12:41:40;;;;;;;10.43;7.97;;;7.40;85.50;;;;;;5015542;28;20200;-92
2020/12/15 12:47:28;;;;;;;8.85;7.57;;;7.60;83.60;;;;;;5025736;28;20229;-87
2020/12/15 12:57:17;;;;;;;11.87;8.77;;;7.60;84.30;;;;;;5025889;28;20183;-90
2020/12/15 13:00:35;;;;;;;10.57;7.97;;;7.40;85.10;;;;;;5023530;28;20222;-93
2020/12/15 13:03:03;;;;;;;11.90;8.23;;;7.20;85.40;;;;;;5018422;28;20229;-92
2020/12/15 13:05:29;;;;;;;11.50;8.50;;;7.20;85.80;;;;;;5023890;28;20330;-93
2020/12/15 13:07:56;;;;;;;12.85;8.38;;;7.20;86.00;;;;;;5026936;28;20742;-89
2020/12/15 13:10:22;;;;;;;15.03;8.97;;;7.20;86.30;;;;;;5027630;28;20241;-92
2020/12/15 13:12:49;;;;;;;11.88;10.13;;;7.10;86.70;;;;;;5020820;28;20362;-90
2020/12/15 13:15:16;;;;;;;13.77;9.77;;;7.00;88.20;;;;;;5014925;28;20271;-89
2020/12/15 13:17:43;;;;;;;14.18;10.38;;;6.90;89.10;;;;;;5012051;28;20235;-88
2020/12/15 13:20:11;;;;;;;17.83;9.80;;;6.90;90.30;;;;;;5015121;28;20209;-89
2020/12/15 13:22:37;;;;;;;13.93;9.32;;;6.90;90.00;;;;;;5018014;28;20230;-88
2020/12/15 13:25:11;;;;;;;12.95;10.23;;;7.00;90.00;;;;;;5020654;28;20214;-86
2020/12/15 13:28:01;;;;;;;14.52;10.70;;;7.00;90.00;;;;;;5018397;28;20254;-90
2020/12/15 13:30:28;;;;;;;15.73;11.33;;;7.00;89.40;;;;;;5025363;28;20199;-87
2020/12/15 13:33:29;;;;;;;20.02;12.38;;;7.00;90.00;;;;;;5014995;28;20231;-87
2020/12/15 13:35:56;;;;;;;17.65;12.70;;;6.80;90.00;;;;;;5010001;28;20232;-87
2020/12/15 13:38:24;;;;;;;17.90;12.17;;;6.80;90.00;;;;;;5010813;28;20239;-88
2020/12/15 13:40:50;;;;;;;15.70;12.20;;;6.80;90.00;;;;;;5014282;28;20199;-87
2020/12/15 13:43:18;;;;;;;16.33;11.93;;;6.80;90.30;;;;;;5007774;28;20235;-89
2020/12/15 13:45:44;;;;;;;23.77;13.57;;;6.70;90.00;;;;;;5008271;28;20188;-87
2020/12/15 13:48:10;;;;;;;16.97;12.13;;;6.60;90.40;;;;;;5012550;28;20321;-92